sensor_id;sensor_type;location;lat;lon;timestamp;P1;durP1;ratioP1;P2;durP2;ratioP2
10335;SDS011;5213;53.548;9.930;2023-07-28T00:00:06;7.20;;;6.60;;
10335;SDS011;5213;53.548;9.930;2023-07-28T00:02:33;6.68;;;6.13;;
10335;SDS011;5213;53.548;9.930;2023-07-28T00:04:59;6.72;;;6.22;;
10335;SDS011;5213;53.548;9.930;2023-07-28T00:07:24;6.40;;;5.90;;
10335;SDS011;5213;53.548;9.930;2023-07-28T00:09:50;6.72;;;6.00;;
10335;SDS011;5213;53.548;9.930;2023-07-28T00:12:16;6.40;;;5.90;;
10335;SDS011;5213;53.548;9.930;2023-07-28T00:14:41;6.40;;;5.90;;
10335;SDS011;5213;53.548;9.930;2023-07-28T00:17:07;6.40;;;5.85;;
10335;SDS011;5213;53.548;9.930;2023-07-28T00:19:32;5.40;;;4.95;;
10335;SDS011;5213;53.548;9.930;2023-07-28T00:21:58;5.55;;;5.15;;
10335;SDS011;5213;53.548;9.930;2023-07-28T00:24:23;6.20;;;5.70;;
10335;SDS011;5213;53.548;9.930;2023-07-28T00:26:49;7.32;;;6.63;;
10335;SDS011;5213;53.548;9.930;2023-07-28T00:29:15;7.00;;;6.43;;
10335;SDS011;5213;53.548;9.930;2023-07-28T00:31:40;7.30;;;6.70;;
10335;SDS011;5213;53.548;9.930;2023-07-28T00:34:06;7.45;;;6.93;;
10335;SDS011;5213;53.548;9.930;2023-07-28T00:36:32;7.03;;;6.53;;
10335;SDS011;5213;53.548;9.930;2023-07-28T00:38:58;7.50;;;6.80;;
10335;SDS011;5213;53.548;9.930;2023-07-28T00:41:24;7.25;;;6.65;;
10335;SDS011;5213;53.548;9.930;2023-07-28T00:43:49;7.78;;;7.18;;
10335;SDS011;5213;53.548;9.930;2023-07-28T00:46:15;7.05;;;6.43;;
10335;SDS011;5213;53.548;9.930;2023-07-28T00:48:41;6.82;;;6.22;;
10335;SDS011;5213;53.548;9.930;2023-07-28T00:51:08;6.93;;;6.32;;
10335;SDS011;5213;53.548;9.930;2023-07-28T00:53:34;7.13;;;6.45;;
10335;SDS011;5213;53.548;9.930;2023-07-28T00:56:03;7.10;;;6.50;;
10335;SDS011;5213;53.548;9.930;2023-07-28T00:58:30;6.35;;;5.85;;
10335;SDS011;5213;53.548;9.930;2023-07-28T01:00:56;6.32;;;5.82;;
10335;SDS011;5213;53.548;9.930;2023-07-28T01:03:22;6.30;;;5.80;;
10335;SDS011;5213;53.548;9.930;2023-07-28T01:08:56;6.28;;;5.78;;
10335;SDS011;5213;53.548;9.930;2023-07-28T01:11:29;6.50;;;6.00;;
10335;SDS011;5213;53.548;9.930;2023-07-28T01:13:55;6.60;;;6.10;;
10335;SDS011;5213;53.548;9.930;2023-07-28T01:16:21;6.60;;;6.10;;
10335;SDS011;5213;53.548;9.930;2023-07-28T01:18:47;6.20;;;5.70;;
10335;SDS011;5213;53.548;9.930;2023-07-28T01:21:14;5.80;;;5.30;;
10335;SDS011;5213;53.548;9.930;2023-07-28T01:26:16;5.53;;;5.10;;
10335;SDS011;5213;53.548;9.930;2023-07-28T01:28:50;5.45;;;5.05;;
10335;SDS011;5213;53.548;9.930;2023-07-28T01:31:17;6.20;;;5.68;;
10335;SDS011;5213;53.548;9.930;2023-07-28T01:33:42;5.53;;;5.13;;
10335;SDS011;5213;53.548;9.930;2023-07-28T01:36:08;5.65;;;4.90;;
10335;SDS011;5213;53.548;9.930;2023-07-28T01:38:33;5.50;;;5.10;;
10335;SDS011;5213;53.548;9.930;2023-07-28T01:40:59;5.30;;;4.85;;
10335;SDS011;5213;53.548;9.930;2023-07-28T01:43:25;5.20;;;4.88;;
10335;SDS011;5213;53.548;9.930;2023-07-28T01:45:50;5.47;;;5.07;;
10335;SDS011;5213;53.548;9.930;2023-07-28T01:48:16;5.07;;;4.65;;
10335;SDS011;5213;53.548;9.930;2023-07-28T01:50:42;5.32;;;4.82;;
10335;SDS011;5213;53.548;9.930;2023-07-28T01:53:08;5.00;;;4.60;;
10335;SDS011;5213;53.548;9.930;2023-07-28T01:55:33;4.63;;;4.32;;
10335;SDS011;5213;53.548;9.930;2023-07-28T01:58:00;4.72;;;4.43;;
10335;SDS011;5213;53.548;9.930;2023-07-28T02:00:27;5.60;;;5.07;;
10335;SDS011;5213;53.548;9.930;2023-07-28T02:02:53;5.70;;;5.28;;
10335;SDS011;5213;53.548;9.930;2023-07-28T02:05:19;5.97;;;5.50;;
10335;SDS011;5213;53.548;9.930;2023-07-28T02:07:45;5.55;;;5.15;;
10335;SDS011;5213;53.548;9.930;2023-07-28T02:10:11;5.32;;;4.93;;
10335;SDS011;5213;53.548;9.930;2023-07-28T02:12:37;6.30;;;5.80;;
10335;SDS011;5213;53.548;9.930;2023-07-28T02:15:04;6.00;;;5.50;;
10335;SDS011;5213;53.548;9.930;2023-07-28T02:17:30;6.47;;;5.95;;
10335;SDS011;5213;53.548;9.930;2023-07-28T02:19:56;6.05;;;5.55;;
10335;SDS011;5213;53.548;9.930;2023-07-28T02:22:22;6.75;;;6.25;;
10335;SDS011;5213;53.548;9.930;2023-07-28T02:24:47;7.05;;;6.45;;
10335;SDS011;5213;53.548;9.930;2023-07-28T02:27:13;7.65;;;6.95;;
10335;SDS011;5213;53.548;9.930;2023-07-28T02:29:39;6.68;;;6.07;;
10335;SDS011;5213;53.548;9.930;2023-07-28T02:32:04;6.10;;;5.57;;
10335;SDS011;5213;53.548;9.930;2023-07-28T02:34:30;7.35;;;6.65;;
10335;SDS011;5213;53.548;9.930;2023-07-28T02:36:57;6.75;;;6.13;;
10335;SDS011;5213;53.548;9.930;2023-07-28T02:39:22;6.85;;;6.25;;
10335;SDS011;5213;53.548;9.930;2023-07-28T02:41:48;9.27;;;6.10;;
10335;SDS011;5213;53.548;9.930;2023-07-28T02:44:14;6.38;;;5.75;;
10335;SDS011;5213;53.548;9.930;2023-07-28T02:46:39;6.90;;;6.30;;
10335;SDS011;5213;53.548;9.930;2023-07-28T02:49:05;6.88;;;6.28;;
10335;SDS011;5213;53.548;9.930;2023-07-28T02:51:30;7.15;;;6.45;;
10335;SDS011;5213;53.548;9.930;2023-07-28T02:53:58;6.70;;;6.15;;
10335;SDS011;5213;53.548;9.930;2023-07-28T02:56:24;6.00;;;5.50;;
10335;SDS011;5213;53.548;9.930;2023-07-28T02:58:50;6.32;;;5.80;;
10335;SDS011;5213;53.548;9.930;2023-07-28T03:01:15;6.22;;;5.68;;
10335;SDS011;5213;53.548;9.930;2023-07-28T03:03:42;6.43;;;5.90;;
10335;SDS011;5213;53.548;9.930;2023-07-28T03:06:08;6.97;;;6.28;;
10335;SDS011;5213;53.548;9.930;2023-07-28T03:08:33;7.25;;;6.55;;
10335;SDS011;5213;53.548;9.930;2023-07-28T03:10:59;7.72;;;6.95;;
10335;SDS011;5213;53.548;9.930;2023-07-28T03:13:27;7.88;;;7.18;;
10335;SDS011;5213;53.548;9.930;2023-07-28T03:15:53;7.85;;;7.07;;
10335;SDS011;5213;53.548;9.930;2023-07-28T03:18:19;8.38;;;7.55;;
10335;SDS011;5213;53.548;9.930;2023-07-28T03:20:45;8.57;;;7.53;;
10335;SDS011;5213;53.548;9.930;2023-07-28T03:23:11;7.78;;;7.07;;
10335;SDS011;5213;53.548;9.930;2023-07-28T03:25:37;7.35;;;6.65;;
10335;SDS011;5213;53.548;9.930;2023-07-28T03:28:03;7.07;;;6.38;;
10335;SDS011;5213;53.548;9.930;2023-07-28T03:30:28;7.15;;;6.53;;
10335;SDS011;5213;53.548;9.930;2023-07-28T03:32:54;6.80;;;6.18;;
10335;SDS011;5213;53.548;9.930;2023-07-28T03:35:20;7.38;;;6.72;;
10335;SDS011;5213;53.548;9.930;2023-07-28T03:37:45;7.78;;;6.63;;
10335;SDS011;5213;53.548;9.930;2023-07-28T03:40:11;7.10;;;6.47;;
10335;SDS011;5213;53.548;9.930;2023-07-28T03:42:37;7.40;;;6.80;;
10335;SDS011;5213;53.548;9.930;2023-07-28T03:45:03;7.25;;;6.55;;
10335;SDS011;5213;53.548;9.930;2023-07-28T03:47:28;7.80;;;6.90;;
10335;SDS011;5213;53.548;9.930;2023-07-28T03:49:54;7.30;;;6.60;;
10335;SDS011;5213;53.548;9.930;2023-07-28T03:52:20;7.43;;;6.82;;
10335;SDS011;5213;53.548;9.930;2023-07-28T03:54:45;6.95;;;6.35;;
10335;SDS011;5213;53.548;9.930;2023-07-28T03:57:11;7.50;;;6.80;;
10335;SDS011;5213;53.548;9.930;2023-07-28T03:59:36;7.30;;;6.70;;
10335;SDS011;5213;53.548;9.930;2023-07-28T04:02:02;6.68;;;6.03;;
10335;SDS011;5213;53.548;9.930;2023-07-28T04:04:28;7.18;;;6.57;;
10335;SDS011;5213;53.548;9.930;2023-07-28T04:06:54;7.22;;;6.63;;
10335;SDS011;5213;53.548;9.930;2023-07-28T04:09:19;6.75;;;6.18;;
10335;SDS011;5213;53.548;9.930;2023-07-28T04:11:45;6.85;;;6.22;;
10335;SDS011;5213;53.548;9.930;2023-07-28T04:14:11;6.78;;;6.18;;
10335;SDS011;5213;53.548;9.930;2023-07-28T04:16:37;6.93;;;6.22;;
10335;SDS011;5213;53.548;9.930;2023-07-28T04:19:03;6.93;;;6.13;;
10335;SDS011;5213;53.548;9.930;2023-07-28T04:21:28;5.75;;;5.35;;
10335;SDS011;5213;53.548;9.930;2023-07-28T04:23:54;6.35;;;5.85;;
10335;SDS011;5213;53.548;9.930;2023-07-28T04:26:20;6.63;;;6.03;;
10335;SDS011;5213;53.548;9.930;2023-07-28T04:28:45;6.68;;;6.05;;
10335;SDS011;5213;53.548;9.930;2023-07-28T04:31:11;5.90;;;5.50;;
10335;SDS011;5213;53.548;9.930;2023-07-28T04:33:38;6.93;;;6.30;;
10335;SDS011;5213;53.548;9.930;2023-07-28T04:36:06;6.72;;;6.22;;
10335;SDS011;5213;53.548;9.930;2023-07-28T04:38:32;7.35;;;6.75;;
10335;SDS011;5213;53.548;9.930;2023-07-28T04:40:58;7.15;;;6.57;;
10335;SDS011;5213;53.548;9.930;2023-07-28T04:43:23;7.05;;;6.45;;
10335;SDS011;5213;53.548;9.930;2023-07-28T04:45:49;6.85;;;6.32;;
10335;SDS011;5213;53.548;9.930;2023-07-28T04:48:15;6.75;;;6.15;;
10335;SDS011;5213;53.548;9.930;2023-07-28T04:50:40;6.70;;;6.20;;
10335;SDS011;5213;53.548;9.930;2023-07-28T04:53:06;7.05;;;6.53;;
10335;SDS011;5213;53.548;9.930;2023-07-28T04:55:32;6.35;;;5.85;;
10335;SDS011;5213;53.548;9.930;2023-07-28T04:57:57;6.88;;;6.38;;
10335;SDS011;5213;53.548;9.930;2023-07-28T05:00:23;6.53;;;5.93;;
10335;SDS011;5213;53.548;9.930;2023-07-28T05:02:49;6.32;;;5.82;;
10335;SDS011;5213;53.548;9.930;2023-07-28T05:05:14;6.03;;;5.63;;
10335;SDS011;5213;53.548;9.930;2023-07-28T05:07:40;5.95;;;5.55;;
10335;SDS011;5213;53.548;9.930;2023-07-28T05:10:06;6.25;;;5.85;;
10335;SDS011;5213;53.548;9.930;2023-07-28T05:12:32;6.18;;;5.68;;
10335;SDS011;5213;53.548;9.930;2023-07-28T05:14:58;6.05;;;5.65;;
10335;SDS011;5213;53.548;9.930;2023-07-28T05:17:24;6.20;;;5.68;;
10335;SDS011;5213;53.548;9.930;2023-07-28T05:19:50;6.15;;;5.75;;
10335;SDS011;5213;53.548;9.930;2023-07-28T05:22:16;5.53;;;5.13;;
10335;SDS011;5213;53.548;9.930;2023-07-28T05:24:41;5.38;;;4.97;;
10335;SDS011;5213;53.548;9.930;2023-07-28T05:27:08;5.28;;;4.88;;
10335;SDS011;5213;53.548;9.930;2023-07-28T05:29:34;4.95;;;4.65;;
10335;SDS011;5213;53.548;9.930;2023-07-28T05:32:00;5.50;;;5.00;;
10335;SDS011;5213;53.548;9.930;2023-07-28T05:34:26;4.78;;;4.47;;
10335;SDS011;5213;53.548;9.930;2023-07-28T05:36:53;4.65;;;4.35;;
10335;SDS011;5213;53.548;9.930;2023-07-28T05:39:19;4.57;;;4.28;;
10335;SDS011;5213;53.548;9.930;2023-07-28T05:41:44;4.53;;;4.22;;
10335;SDS011;5213;53.548;9.930;2023-07-28T05:44:10;4.60;;;4.30;;
10335;SDS011;5213;53.548;9.930;2023-07-28T05:46:36;4.07;;;3.83;;
10335;SDS011;5213;53.548;9.930;2023-07-28T05:49:01;4.00;;;3.80;;
10335;SDS011;5213;53.548;9.930;2023-07-28T05:51:27;4.60;;;4.30;;
10335;SDS011;5213;53.548;9.930;2023-07-28T05:53:53;4.68;;;3.88;;
10335;SDS011;5213;53.548;9.930;2023-07-28T05:56:19;4.68;;;4.38;;
10335;SDS011;5213;53.548;9.930;2023-07-28T05:58:48;3.30;;;3.10;;
10335;SDS011;5213;53.548;9.930;2023-07-28T06:01:14;3.13;;;2.92;;
10335;SDS011;5213;53.548;9.930;2023-07-28T06:03:40;3.13;;;2.83;;
10335;SDS011;5213;53.548;9.930;2023-07-28T06:06:06;2.75;;;2.65;;
10335;SDS011;5213;53.548;9.930;2023-07-28T06:08:32;2.65;;;2.55;;
10335;SDS011;5213;53.548;9.930;2023-07-28T06:10:58;2.20;;;2.10;;
10335;SDS011;5213;53.548;9.930;2023-07-28T06:13:23;2.30;;;2.10;;
10335;SDS011;5213;53.548;9.930;2023-07-28T06:15:49;1.95;;;1.85;;
10335;SDS011;5213;53.548;9.930;2023-07-28T06:18:14;1.90;;;1.80;;
10335;SDS011;5213;53.548;9.930;2023-07-28T06:20:42;1.88;;;1.77;;
10335;SDS011;5213;53.548;9.930;2023-07-28T06:23:08;1.80;;;1.80;;
10335;SDS011;5213;53.548;9.930;2023-07-28T06:25:33;2.10;;;2.00;;
10335;SDS011;5213;53.548;9.930;2023-07-28T06:27:59;1.77;;;1.67;;
10335;SDS011;5213;53.548;9.930;2023-07-28T06:30:25;1.45;;;1.38;;
10335;SDS011;5213;53.548;9.930;2023-07-28T06:32:51;1.80;;;1.70;;
10335;SDS011;5213;53.548;9.930;2023-07-28T06:35:16;1.85;;;1.75;;
10335;SDS011;5213;53.548;9.930;2023-07-28T06:37:42;1.60;;;1.50;;
10335;SDS011;5213;53.548;9.930;2023-07-28T06:40:08;2.35;;;1.77;;
10335;SDS011;5213;53.548;9.930;2023-07-28T06:42:34;2.60;;;2.50;;
10335;SDS011;5213;53.548;9.930;2023-07-28T06:45:01;2.45;;;2.35;;
10335;SDS011;5213;53.548;9.930;2023-07-28T06:47:30;2.60;;;2.50;;
10335;SDS011;5213;53.548;9.930;2023-07-28T06:49:56;2.25;;;2.15;;
10335;SDS011;5213;53.548;9.930;2023-07-28T06:52:21;2.30;;;2.10;;
10335;SDS011;5213;53.548;9.930;2023-07-28T06:54:47;2.05;;;1.95;;
10335;SDS011;5213;53.548;9.930;2023-07-28T06:57:14;2.90;;;2.70;;
10335;SDS011;5213;53.548;9.930;2023-07-28T06:59:40;2.50;;;2.40;;
10335;SDS011;5213;53.548;9.930;2023-07-28T07:02:06;2.50;;;2.40;;
10335;SDS011;5213;53.548;9.930;2023-07-28T07:04:32;2.75;;;2.65;;
10335;SDS011;5213;53.548;9.930;2023-07-28T07:06:57;1.73;;;1.63;;
10335;SDS011;5213;53.548;9.930;2023-07-28T07:09:23;2.08;;;1.98;;
10335;SDS011;5213;53.548;9.930;2023-07-28T07:11:49;1.73;;;1.65;;
10335;SDS011;5213;53.548;9.930;2023-07-28T07:14:15;1.80;;;1.70;;
10335;SDS011;5213;53.548;9.930;2023-07-28T07:16:41;3.45;;;2.97;;
10335;SDS011;5213;53.548;9.930;2023-07-28T07:19:07;3.38;;;2.17;;
10335;SDS011;5213;53.548;9.930;2023-07-28T07:21:33;2.00;;;1.90;;
10335;SDS011;5213;53.548;9.930;2023-07-28T07:23:59;2.10;;;1.95;;
10335;SDS011;5213;53.548;9.930;2023-07-28T07:26:25;5.78;;;2.65;;
10335;SDS011;5213;53.548;9.930;2023-07-28T07:28:51;2.10;;;2.00;;
10335;SDS011;5213;53.548;9.930;2023-07-28T07:31:16;2.17;;;2.08;;
10335;SDS011;5213;53.548;9.930;2023-07-28T07:33:42;2.13;;;2.03;;
10335;SDS011;5213;53.548;9.930;2023-07-28T07:36:11;3.42;;;2.08;;
10335;SDS011;5213;53.548;9.930;2023-07-28T07:38:38;2.10;;;2.00;;
10335;SDS011;5213;53.548;9.930;2023-07-28T07:41:05;2.28;;;2.17;;
10335;SDS011;5213;53.548;9.930;2023-07-28T07:43:31;2.30;;;2.20;;
10335;SDS011;5213;53.548;9.930;2023-07-28T07:45:57;2.55;;;2.45;;
10335;SDS011;5213;53.548;9.930;2023-07-28T07:48:23;2.40;;;2.30;;
10335;SDS011;5213;53.548;9.930;2023-07-28T07:50:48;2.55;;;2.42;;
10335;SDS011;5213;53.548;9.930;2023-07-28T07:53:14;3.00;;;2.80;;
10335;SDS011;5213;53.548;9.930;2023-07-28T07:55:40;2.75;;;2.65;;
10335;SDS011;5213;53.548;9.930;2023-07-28T07:58:06;2.70;;;2.50;;
10335;SDS011;5213;53.548;9.930;2023-07-28T08:00:32;2.60;;;2.42;;
10335;SDS011;5213;53.548;9.930;2023-07-28T08:02:58;2.50;;;2.40;;
10335;SDS011;5213;53.548;9.930;2023-07-28T08:05:24;2.30;;;2.20;;
10335;SDS011;5213;53.548;9.930;2023-07-28T08:07:50;2.25;;;2.15;;
10335;SDS011;5213;53.548;9.930;2023-07-28T08:10:15;2.60;;;2.50;;
10335;SDS011;5213;53.548;9.930;2023-07-28T08:12:42;2.35;;;2.25;;
10335;SDS011;5213;53.548;9.930;2023-07-28T08:15:09;2.60;;;2.50;;
10335;SDS011;5213;53.548;9.930;2023-07-28T08:17:35;2.28;;;2.17;;
10335;SDS011;5213;53.548;9.930;2023-07-28T08:20:01;2.70;;;2.60;;
10335;SDS011;5213;53.548;9.930;2023-07-28T08:22:27;2.10;;;2.00;;
10335;SDS011;5213;53.548;9.930;2023-07-28T08:24:52;2.40;;;2.20;;
10335;SDS011;5213;53.548;9.930;2023-07-28T08:27:18;2.30;;;2.20;;
10335;SDS011;5213;53.548;9.930;2023-07-28T08:29:43;2.50;;;2.08;;
10335;SDS011;5213;53.548;9.930;2023-07-28T08:32:09;2.35;;;2.25;;
10335;SDS011;5213;53.548;9.930;2023-07-28T08:34:35;2.35;;;2.25;;
10335;SDS011;5213;53.548;9.930;2023-07-28T08:37:00;2.38;;;2.28;;
10335;SDS011;5213;53.548;9.930;2023-07-28T08:39:26;2.10;;;2.00;;
10335;SDS011;5213;53.548;9.930;2023-07-28T08:41:58;2.15;;;2.05;;
10335;SDS011;5213;53.548;9.930;2023-07-28T08:44:25;1.70;;;1.70;;
10335;SDS011;5213;53.548;9.930;2023-07-28T08:46:51;1.58;;;1.58;;
10335;SDS011;5213;53.548;9.930;2023-07-28T08:49:17;2.13;;;2.00;;
10335;SDS011;5213;53.548;9.930;2023-07-28T08:51:48;2.10;;;2.00;;
10335;SDS011;5213;53.548;9.930;2023-07-28T08:54:14;1.70;;;1.60;;
10335;SDS011;5213;53.548;9.930;2023-07-28T08:56:42;1.75;;;1.65;;
10335;SDS011;5213;53.548;9.930;2023-07-28T08:59:08;1.52;;;1.52;;
10335;SDS011;5213;53.548;9.930;2023-07-28T09:01:43;1.80;;;1.70;;
10335;SDS011;5213;53.548;9.930;2023-07-28T09:04:11;1.88;;;1.77;;
10335;SDS011;5213;53.548;9.930;2023-07-28T09:06:37;1.85;;;1.70;;
10335;SDS011;5213;53.548;9.930;2023-07-28T09:09:06;1.50;;;1.50;;
10335;SDS011;5213;53.548;9.930;2023-07-28T09:11:32;1.80;;;1.70;;
10335;SDS011;5213;53.548;9.930;2023-07-28T09:13:59;1.40;;;1.40;;
10335;SDS011;5213;53.548;9.930;2023-07-28T09:16:25;1.70;;;1.63;;
10335;SDS011;5213;53.548;9.930;2023-07-28T09:19:06;1.50;;;1.40;;
10335;SDS011;5213;53.548;9.930;2023-07-28T09:21:32;2.15;;;2.00;;
10335;SDS011;5213;53.548;9.930;2023-07-28T09:24:09;2.22;;;2.10;;
10335;SDS011;5213;53.548;9.930;2023-07-28T09:26:47;1.90;;;1.83;;
10335;SDS011;5213;53.548;9.930;2023-07-28T09:29:22;1.80;;;1.70;;
10335;SDS011;5213;53.548;9.930;2023-07-28T09:31:48;2.10;;;1.90;;
10335;SDS011;5213;53.548;9.930;2023-07-28T09:34:27;2.10;;;2.00;;
10335;SDS011;5213;53.548;9.930;2023-07-28T09:36:56;3.50;;;2.17;;
10335;SDS011;5213;53.548;9.930;2023-07-28T09:39:22;2.20;;;2.00;;
10335;SDS011;5213;53.548;9.930;2023-07-28T09:41:49;2.20;;;2.10;;
10335;SDS011;5213;53.548;9.930;2023-07-28T09:44:15;2.38;;;2.13;;
10335;SDS011;5213;53.548;9.930;2023-07-28T09:46:59;2.05;;;1.88;;
10335;SDS011;5213;53.548;9.930;2023-07-28T09:49:35;2.22;;;2.13;;
10335;SDS011;5213;53.548;9.930;2023-07-28T09:52:08;2.38;;;2.20;;
10335;SDS011;5213;53.548;9.930;2023-07-28T09:54:41;1.90;;;1.80;;
10335;SDS011;5213;53.548;9.930;2023-07-28T09:57:08;2.53;;;2.33;;
10335;SDS011;5213;53.548;9.930;2023-07-28T09:59:39;3.30;;;3.10;;
10335;SDS011;5213;53.548;9.930;2023-07-28T10:02:07;3.13;;;2.92;;
10335;SDS011;5213;53.548;9.930;2023-07-28T10:04:33;3.45;;;3.15;;
10335;SDS011;5213;53.548;9.930;2023-07-28T10:06:59;3.20;;;3.00;;
10335;SDS011;5213;53.548;9.930;2023-07-28T10:09:26;2.80;;;2.70;;
10335;SDS011;5213;53.548;9.930;2023-07-28T10:11:53;2.90;;;2.70;;
10335;SDS011;5213;53.548;9.930;2023-07-28T10:14:29;3.10;;;2.90;;
10335;SDS011;5213;53.548;9.930;2023-07-28T10:16:57;3.05;;;2.78;;
10335;SDS011;5213;53.548;9.930;2023-07-28T10:19:26;3.47;;;3.22;;
10335;SDS011;5213;53.548;9.930;2023-07-28T10:22:02;2.90;;;2.70;;
10335;SDS011;5213;53.548;9.930;2023-07-28T10:30:10;3.03;;;2.78;;
10335;SDS011;5213;53.548;9.930;2023-07-28T10:32:41;2.83;;;2.63;;
10335;SDS011;5213;53.548;9.930;2023-07-28T10:35:09;2.80;;;2.60;;
10335;SDS011;5213;53.548;9.930;2023-07-28T10:37:54;2.88;;;2.67;;
10335;SDS011;5213;53.548;9.930;2023-07-28T10:43:00;2.85;;;2.28;;
10335;SDS011;5213;53.548;9.930;2023-07-28T10:45:28;2.63;;;2.42;;
10335;SDS011;5213;53.548;9.930;2023-07-28T10:47:55;2.40;;;2.20;;
10335;SDS011;5213;53.548;9.930;2023-07-28T10:50:25;2.60;;;2.40;;
10335;SDS011;5213;53.548;9.930;2023-07-28T10:52:56;2.17;;;2.08;;
10335;SDS011;5213;53.548;9.930;2023-07-28T10:55:23;2.15;;;2.05;;
10335;SDS011;5213;53.548;9.930;2023-07-28T10:57:50;1.77;;;1.63;;
10335;SDS011;5213;53.548;9.930;2023-07-28T11:00:18;1.90;;;1.80;;
10335;SDS011;5213;53.548;9.930;2023-07-28T11:02:45;2.17;;;1.92;;
10335;SDS011;5213;53.548;9.930;2023-07-28T11:05:24;2.17;;;2.08;;
10335;SDS011;5213;53.548;9.930;2023-07-28T11:07:54;2.13;;;2.03;;
10335;SDS011;5213;53.548;9.930;2023-07-28T11:10:21;1.85;;;1.75;;
10335;SDS011;5213;53.548;9.930;2023-07-28T11:12:48;1.90;;;1.80;;
10335;SDS011;5213;53.548;9.930;2023-07-28T11:15:15;1.70;;;1.60;;
10335;SDS011;5213;53.548;9.930;2023-07-28T11:17:42;2.25;;;2.10;;
10335;SDS011;5213;53.548;9.930;2023-07-28T11:20:16;2.10;;;2.00;;
10335;SDS011;5213;53.548;9.930;2023-07-28T11:22:43;2.22;;;2.08;;
10335;SDS011;5213;53.548;9.930;2023-07-28T11:25:10;2.33;;;2.22;;
10335;SDS011;5213;53.548;9.930;2023-07-28T11:27:36;1.77;;;1.67;;
10335;SDS011;5213;53.548;9.930;2023-07-28T11:30:02;1.73;;;1.73;;
10335;SDS011;5213;53.548;9.930;2023-07-28T11:32:30;1.80;;;1.70;;
10335;SDS011;5213;53.548;9.930;2023-07-28T11:35:02;1.70;;;1.60;;
10335;SDS011;5213;53.548;9.930;2023-07-28T11:37:29;1.73;;;1.42;;
10335;SDS011;5213;53.548;9.930;2023-07-28T11:39:55;1.60;;;1.60;;
10335;SDS011;5213;53.548;9.930;2023-07-28T11:42:23;1.67;;;1.58;;
10335;SDS011;5213;53.548;9.930;2023-07-28T11:44:49;1.58;;;1.58;;
10335;SDS011;5213;53.548;9.930;2023-07-28T11:47:18;1.70;;;1.60;;
10335;SDS011;5213;53.548;9.930;2023-07-28T11:49:47;1.40;;;1.40;;
10335;SDS011;5213;53.548;9.930;2023-07-28T11:52:14;1.60;;;1.50;;
10335;SDS011;5213;53.548;9.930;2023-07-28T11:54:40;1.80;;;1.60;;
10335;SDS011;5213;53.548;9.930;2023-07-28T11:57:07;2.03;;;1.80;;
10335;SDS011;5213;53.548;9.930;2023-07-28T11:59:34;1.52;;;1.50;;
10335;SDS011;5213;53.548;9.930;2023-07-28T12:02:03;1.50;;;1.50;;
10335;SDS011;5213;53.548;9.930;2023-07-28T12:04:30;1.50;;;1.40;;
10335;SDS011;5213;53.548;9.930;2023-07-28T12:12:13;1.55;;;1.50;;
10335;SDS011;5213;53.548;9.930;2023-07-28T12:14:44;1.38;;;1.38;;
10335;SDS011;5213;53.548;9.930;2023-07-28T12:17:15;1.30;;;1.30;;
10335;SDS011;5213;53.548;9.930;2023-07-28T12:20:01;1.13;;;1.13;;
10335;SDS011;5213;53.548;9.930;2023-07-28T12:22:43;1.33;;;1.25;;
10335;SDS011;5213;53.548;9.930;2023-07-28T12:25:10;1.40;;;1.30;;
10335;SDS011;5213;53.548;9.930;2023-07-28T12:27:36;1.30;;;1.30;;
10335;SDS011;5213;53.548;9.930;2023-07-28T12:30:03;1.40;;;1.40;;
10335;SDS011;5213;53.548;9.930;2023-07-28T12:32:29;1.50;;;1.50;;
10335;SDS011;5213;53.548;9.930;2023-07-28T12:34:55;1.30;;;1.30;;
10335;SDS011;5213;53.548;9.930;2023-07-28T12:37:20;1.30;;;1.30;;
10335;SDS011;5213;53.548;9.930;2023-07-28T12:39:46;2.25;;;1.20;;
10335;SDS011;5213;53.548;9.930;2023-07-28T12:42:13;1.30;;;1.30;;
10335;SDS011;5213;53.548;9.930;2023-07-28T12:44:39;1.20;;;1.20;;
10335;SDS011;5213;53.548;9.930;2023-07-28T12:47:06;1.58;;;1.48;;
10335;SDS011;5213;53.548;9.930;2023-07-28T12:49:32;1.40;;;1.30;;
10335;SDS011;5213;53.548;9.930;2023-07-28T12:52:00;1.30;;;1.30;;
10335;SDS011;5213;53.548;9.930;2023-07-28T12:54:27;1.08;;;1.08;;
10335;SDS011;5213;53.548;9.930;2023-07-28T12:56:54;1.55;;;1.45;;
10335;SDS011;5213;53.548;9.930;2023-07-28T12:59:20;1.40;;;1.40;;
10335;SDS011;5213;53.548;9.930;2023-07-28T13:01:45;1.42;;;1.40;;
10335;SDS011;5213;53.548;9.930;2023-07-28T13:04:11;1.40;;;1.40;;
10335;SDS011;5213;53.548;9.930;2023-07-28T13:06:37;1.55;;;1.52;;
10335;SDS011;5213;53.548;9.930;2023-07-28T13:09:03;1.30;;;1.30;;
10335;SDS011;5213;53.548;9.930;2023-07-28T13:11:29;1.60;;;1.50;;
10335;SDS011;5213;53.548;9.930;2023-07-28T13:13:55;2.88;;;1.60;;
10335;SDS011;5213;53.548;9.930;2023-07-28T13:16:20;1.60;;;1.50;;
10335;SDS011;5213;53.548;9.930;2023-07-28T13:18:46;1.40;;;1.40;;
10335;SDS011;5213;53.548;9.930;2023-07-28T13:21:12;1.63;;;1.50;;
10335;SDS011;5213;53.548;9.930;2023-07-28T13:23:38;1.60;;;1.50;;
10335;SDS011;5213;53.548;9.930;2023-07-28T13:26:04;1.83;;;1.73;;
10335;SDS011;5213;53.548;9.930;2023-07-28T13:28:30;1.40;;;1.40;;
10335;SDS011;5213;53.548;9.930;2023-07-28T13:30:56;1.60;;;1.60;;
10335;SDS011;5213;53.548;9.930;2023-07-28T13:33:22;2.08;;;1.70;;
10335;SDS011;5213;53.548;9.930;2023-07-28T13:35:47;1.75;;;1.65;;
10335;SDS011;5213;53.548;9.930;2023-07-28T13:38:13;1.50;;;1.50;;
10335;SDS011;5213;53.548;9.930;2023-07-28T13:40:39;1.63;;;1.48;;
10335;SDS011;5213;53.548;9.930;2023-07-28T13:43:05;1.90;;;1.67;;
10335;SDS011;5213;53.548;9.930;2023-07-28T13:45:31;1.80;;;1.70;;
10335;SDS011;5213;53.548;9.930;2023-07-28T13:47:56;2.35;;;1.50;;
10335;SDS011;5213;53.548;9.930;2023-07-28T13:50:22;1.85;;;1.70;;
10335;SDS011;5213;53.548;9.930;2023-07-28T13:52:48;1.52;;;1.52;;
10335;SDS011;5213;53.548;9.930;2023-07-28T13:55:14;1.55;;;1.55;;
10335;SDS011;5213;53.548;9.930;2023-07-28T13:57:40;1.60;;;1.60;;
10335;SDS011;5213;53.548;9.930;2023-07-28T14:00:06;1.77;;;1.70;;
10335;SDS011;5213;53.548;9.930;2023-07-28T14:02:35;1.55;;;1.50;;
10335;SDS011;5213;53.548;9.930;2023-07-28T14:05:01;1.60;;;1.50;;
10335;SDS011;5213;53.548;9.930;2023-07-28T14:07:28;2.05;;;1.60;;
10335;SDS011;5213;53.548;9.930;2023-07-28T14:09:53;1.60;;;1.50;;
10335;SDS011;5213;53.548;9.930;2023-07-28T14:12:19;1.60;;;1.50;;
10335;SDS011;5213;53.548;9.930;2023-07-28T14:14:45;1.30;;;1.20;;
10335;SDS011;5213;53.548;9.930;2023-07-28T14:17:10;1.27;;;1.20;;
10335;SDS011;5213;53.548;9.930;2023-07-28T14:19:37;1.67;;;1.58;;
10335;SDS011;5213;53.548;9.930;2023-07-28T14:22:03;1.98;;;1.60;;
10335;SDS011;5213;53.548;9.930;2023-07-28T14:24:29;1.25;;;1.25;;
10335;SDS011;5213;53.548;9.930;2023-07-28T14:26:55;1.60;;;1.50;;
10335;SDS011;5213;53.548;9.930;2023-07-28T14:29:20;1.38;;;1.33;;
10335;SDS011;5213;53.548;9.930;2023-07-28T14:31:46;1.42;;;1.23;;
10335;SDS011;5213;53.548;9.930;2023-07-28T14:34:12;1.17;;;1.17;;
10335;SDS011;5213;53.548;9.930;2023-07-28T14:36:38;1.52;;;1.42;;
10335;SDS011;5213;53.548;9.930;2023-07-28T14:39:03;1.17;;;1.17;;
10335;SDS011;5213;53.548;9.930;2023-07-28T14:41:29;1.20;;;1.20;;
10335;SDS011;5213;53.548;9.930;2023-07-28T14:43:55;1.10;;;1.10;;
10335;SDS011;5213;53.548;9.930;2023-07-28T14:46:20;1.20;;;1.20;;
10335;SDS011;5213;53.548;9.930;2023-07-28T14:48:47;1.40;;;1.40;;
10335;SDS011;5213;53.548;9.930;2023-07-28T14:51:14;2.25;;;1.20;;
10335;SDS011;5213;53.548;9.930;2023-07-28T14:53:40;1.00;;;1.00;;
10335;SDS011;5213;53.548;9.930;2023-07-28T14:56:07;1.15;;;1.10;;
10335;SDS011;5213;53.548;9.930;2023-07-28T14:58:32;1.15;;;1.15;;
10335;SDS011;5213;53.548;9.930;2023-07-28T15:00:58;1.20;;;1.15;;
10335;SDS011;5213;53.548;9.930;2023-07-28T15:03:25;1.42;;;1.33;;
10335;SDS011;5213;53.548;9.930;2023-07-28T15:05:55;1.77;;;1.42;;
10335;SDS011;5213;53.548;9.930;2023-07-28T15:08:21;1.48;;;1.25;;
10335;SDS011;5213;53.548;9.930;2023-07-28T15:10:47;1.38;;;1.30;;
10335;SDS011;5213;53.548;9.930;2023-07-28T15:13:12;1.27;;;1.17;;
10335;SDS011;5213;53.548;9.930;2023-07-28T15:15:38;1.33;;;1.30;;